Time;durP1;ratioP1;P1;durP2;ratioP2;P2;SDS_P1;SDS_P2;PMS_P1;PMS_P2;Temp;Humidity;BMP_temperature;BMP_pressure;BME280_temperature;BME280_humidity;BME280_pressure;Samples;Min_cycle;Max_cycle;Signal;HPM_P1;HPM_P2
2023/06/21 00:00:59;;;;;;;15.45;13.95;;;20.00;99.90;;;;;;5064287;28;20481;-33
2023/06/21 00:03:25;;;;;;;15.25;13.85;;;20.00;99.90;;;;;;5069770;28;20059;-33
2023/06/21 00:05:51;;;;;;;14.60;13.30;;;20.00;99.90;;;;;;5068396;28;20040;-33
2023/06/21 00:08:16;;;;;;;15.98;14.35;;;20.00;99.90;;;;;;5070703;28;20039;-33
2023/06/21 00:10:44;;;;;;;15.07;13.65;;;20.00;99.90;;;;;;5071721;28;20043;-33
2023/06/21 00:13:09;;;;;;;15.23;13.65;;;20.00;99.90;;;;;;5072389;28;20047;-33
2023/06/21 00:15:36;;;;;;;16.00;14.25;;;19.90;99.90;;;;;;5051757;28;20044;-33
2023/06/21 00:18:02;;;;;;;15.70;14.10;;;19.90;99.90;;;;;;5071998;28;20497;-33
2023/06/21 00:20:28;;;;;;;14.70;13.30;;;19.90;99.90;;;;;;5071748;28;20041;-33
2023/06/21 00:22:55;;;;;;;15.77;14.02;;;19.90;99.90;;;;;;5071731;28;20108;-33
2023/06/21 00:25:22;;;;;;;14.75;13.35;;;19.90;99.90;;;;;;5072028;28;20439;-33
2023/06/21 00:27:48;;;;;;;15.18;13.68;;;19.90;99.90;;;;;;5065767;28;20417;-33
2023/06/21 00:30:14;;;;;;;15.88;14.38;;;19.90;99.90;;;;;;5068710;28;20051;-33
2023/06/21 00:32:39;;;;;;;15.05;13.63;;;19.80;99.90;;;;;;5071487;28;20477;-33
2023/06/21 00:35:06;;;;;;;16.00;14.40;;;19.80;99.90;;;;;;5065516;28;20430;-33
2023/06/21 00:37:32;;;;;;;17.08;15.40;;;19.80;99.90;;;;;;5070619;28;20040;-33
2023/06/21 00:39:57;;;;;;;17.83;15.93;;;19.80;99.90;;;;;;5071805;28;20508;-34
2023/06/21 00:42:23;;;;;;;17.50;15.80;;;19.80;99.90;;;;;;5071064;28;20040;-33
2023/06/21 00:44:49;;;;;;;18.00;16.30;;;19.80;99.90;;;;;;5067994;28;20071;-33
2023/06/21 00:47:18;;;;;;;17.13;15.43;;;19.70;99.90;;;;;;5063625;28;20037;-33
2023/06/21 00:49:45;;;;;;;17.30;15.55;;;19.70;99.90;;;;;;5063122;28;20056;-33
2023/06/21 00:52:11;;;;;;;16.55;15.00;;;19.60;99.90;;;;;;5069475;28;20048;-32
2023/06/21 00:54:37;;;;;;;17.25;15.57;;;19.60;99.90;;;;;;5065445;28;20064;-33
2023/06/21 00:57:04;;;;;;;17.60;15.85;;;19.60;99.90;;;;;;5071456;28;20122;-33
2023/06/21 00:59:30;;;;;;;19.40;17.40;;;19.50;99.90;;;;;;5070597;28;20036;-32
2023/06/21 01:01:57;;;;;;;20.30;18.42;;;19.50;99.90;;;;;;5070549;28;20076;-33
2023/06/21 01:04:24;;;;;;;18.20;16.40;;;19.50;99.90;;;;;;5067095;28;20398;-33
2023/06/21 01:07:12;;;;;;;18.75;16.95;;;19.50;99.90;;;;;;5068890;28;20112;-33
2023/06/21 01:10:13;;;;;;;17.65;16.08;;;19.40;99.90;;;;;;5061361;28;20039;-33
2023/06/21 01:12:56;;;;;;;20.15;18.08;;;19.40;99.90;;;;;;5060744;28;20370;-33
2023/06/21 01:15:33;;;;;;;19.98;17.90;;;19.40;99.90;;;;;;5064243;28;20064;-33
2023/06/21 01:18:00;;;;;;;20.85;18.80;;;19.30;99.90;;;;;;5066794;28;20115;-33
2023/06/21 01:20:28;;;;;;;21.15;19.05;;;19.30;99.90;;;;;;5067598;28;20443;-33
2023/06/21 01:23:31;;;;;;;21.27;19.17;;;19.30;99.90;;;;;;5049155;28;20046;-33
2023/06/21 01:26:10;;;;;;;20.75;18.65;;;19.30;99.90;;;;;;5066478;28;20036;-33
2023/06/21 01:29:04;;;;;;;22.27;19.17;;;19.20;99.90;;;;;;5068430;28;20178;-33
2023/06/21 01:31:35;;;;;;;21.15;19.00;;;19.20;99.90;;;;;;5066993;28;20056;-33
2023/06/21 01:34:03;;;;;;;22.52;20.20;;;19.10;99.90;;;;;;5070430;28;20036;-33
2023/06/21 01:36:29;;;;;;;23.35;21.10;;;19.10;99.90;;;;;;5071071;28;20079;-32
2023/06/21 01:38:56;;;;;;;22.58;20.30;;;19.20;99.90;;;;;;5071767;28;20064;-33
2023/06/21 01:41:22;;;;;;;22.13;19.88;;;19.10;99.90;;;;;;5071592;28;20089;-34
2023/06/21 01:43:48;;;;;;;24.42;21.98;;;19.20;99.90;;;;;;5052410;28;20131;-32
2023/06/21 01:46:14;;;;;;;23.83;21.48;;;19.10;99.90;;;;;;5069681;28;20419;-33
2023/06/21 01:48:42;;;;;;;23.02;20.63;;;19.10;99.90;;;;;;5070638;28;20478;-33
2023/06/21 01:51:09;;;;;;;25.13;22.38;;;19.10;99.90;;;;;;5070789;28;20452;-33
2023/06/21 01:53:36;;;;;;;24.30;21.70;;;19.10;99.90;;;;;;5066125;28;20538;-33
2023/06/21 01:56:08;;;;;;;23.55;21.15;;;19.10;99.90;;;;;;5070172;28;20424;-33
2023/06/21 01:58:34;;;;;;;24.10;21.60;;;19.10;99.90;;;;;;5070492;28;20054;-33
2023/06/21 02:01:02;;;;;;;26.50;23.52;;;19.10;99.90;;;;;;5070120;28;20052;-33
2023/06/21 02:03:28;;;;;;;24.70;22.15;;;19.10;99.90;;;;;;5069910;28;20032;-33
2023/06/21 02:05:56;;;;;;;27.10;24.20;;;19.10;99.90;;;;;;5052304;28;20373;-33
2023/06/21 02:08:22;;;;;;;25.30;22.65;;;19.10;99.90;;;;;;5070579;28;20032;-33
2023/06/21 02:10:49;;;;;;;25.17;22.52;;;19.10;99.90;;;;;;5069116;28;20033;-33
2023/06/21 02:13:16;;;;;;;26.92;24.13;;;19.00;99.90;;;;;;5070036;28;20097;-33
2023/06/21 02:15:42;;;;;;;26.63;23.83;;;19.10;99.90;;;;;;5069590;28;20119;-33
2023/06/21 02:18:12;;;;;;;29.35;26.23;;;19.10;99.90;;;;;;5070416;28;20068;-34
2023/06/21 02:20:38;;;;;;;29.58;26.30;;;19.10;99.90;;;;;;5053525;28;20044;-33
2023/06/21 02:23:05;;;;;;;32.65;28.20;;;19.10;99.90;;;;;;5069714;28;20040;-33
2023/06/21 02:25:32;;;;;;;31.15;27.20;;;19.10;99.90;;;;;;5069463;28;20355;-33
2023/06/21 02:27:58;;;;;;;37.65;29.23;;;19.10;99.90;;;;;;5069490;28;20037;-33
2023/06/21 02:30:24;;;;;;;35.08;29.33;;;19.10;99.90;;;;;;5069451;28;20452;-33
2023/06/21 02:32:50;;;;;;;32.38;27.60;;;19.00;99.90;;;;;;5068541;28;20032;-33
2023/06/21 02:35:16;;;;;;;33.95;29.58;;;19.00;99.90;;;;;;5068541;28;20036;-33
2023/06/21 02:37:41;;;;;;;33.40;29.80;;;19.00;99.90;;;;;;5069979;28;20111;-33
2023/06/21 02:40:11;;;;;;;35.88;31.05;;;18.90;99.90;;;;;;5066617;28;20599;-33
2023/06/21 02:42:37;;;;;;;34.58;30.70;;;18.90;99.90;;;;;;5061850;28;20549;-33
2023/06/21 02:45:03;;;;;;;36.97;31.63;;;18.90;99.90;;;;;;5068623;28;20119;-33
2023/06/21 02:47:29;;;;;;;35.25;30.25;;;18.80;99.90;;;;;;5069003;28;20060;-33
2023/06/21 02:49:55;;;;;;;36.67;32.10;;;18.80;99.90;;;;;;5066062;28;20032;-33
2023/06/21 02:52:21;;;;;;;37.80;32.80;;;18.80;99.90;;;;;;5070120;28;20086;-33
2023/06/21 02:54:46;;;;;;;36.40;32.45;;;18.70;99.90;;;;;;5069928;28;20040;-33
2023/06/21 02:57:12;;;;;;;37.20;32.08;;;18.70;99.90;;;;;;5069295;28;20533;-33
2023/06/21 02:59:38;;;;;;;40.13;33.53;;;18.70;99.90;;;;;;5067704;28;20086;-33
2023/06/21 03:02:04;;;;;;;35.15;30.30;;;18.70;99.90;;;;;;5070168;28;20111;-33
2023/06/21 03:04:30;;;;;;;37.47;31.55;;;18.60;99.90;;;;;;5058235;28;20424;-33
2023/06/21 03:06:56;;;;;;;36.03;31.15;;;18.60;99.90;;;;;;5057219;28;20033;-33
2023/06/21 03:09:23;;;;;;;38.00;31.60;;;18.60;99.90;;;;;;5068593;28;20679;-33
2023/06/21 03:11:48;;;;;;;35.38;30.17;;;18.60;99.90;;;;;;5069733;28;20393;-33
2023/06/21 03:14:14;;;;;;;34.42;29.98;;;18.60;99.90;;;;;;5064257;28;20132;-32
2023/06/21 03:16:41;;;;;;;38.10;32.55;;;18.60;99.90;;;;;;5047284;28;20532;-33
2023/06/21 03:19:08;;;;;;;34.22;30.27;;;18.60;99.90;;;;;;5073523;28;20040;-33
2023/06/21 03:21:34;;;;;;;33.63;30.05;;;18.50;99.90;;;;;;5074564;28;20033;-33
2023/06/21 03:24:02;;;;;;;34.55;29.88;;;18.50;99.90;;;;;;5072478;28;20098;-33
2023/06/21 03:26:27;;;;;;;39.20;32.05;;;18.50;99.90;;;;;;5072990;28;20055;-33
2023/06/21 03:28:54;;;;;;;34.25;29.38;;;18.50;99.90;;;;;;5072263;28;20028;-33
2023/06/21 03:31:20;;;;;;;36.45;31.40;;;18.40;99.90;;;;;;5072870;28;20040;-33
2023/06/21 03:33:46;;;;;;;42.17;33.88;;;18.40;99.90;;;;;;5072486;28;20032;-33
2023/06/21 03:36:12;;;;;;;37.75;32.03;;;18.40;99.90;;;;;;5072236;28;20448;-33
2023/06/21 03:38:38;;;;;;;36.30;29.70;;;18.40;99.90;;;;;;5072945;28;20024;-33
2023/06/21 03:41:04;;;;;;;39.80;33.53;;;18.40;99.90;;;;;;5072454;28;20044;-33
2023/06/21 03:43:29;;;;;;;40.28;32.83;;;18.40;99.90;;;;;;5050854;28;20047;-33
2023/06/21 03:45:55;;;;;;;39.70;32.35;;;18.40;99.90;;;;;;5073233;28;20047;-33
2023/06/21 03:48:21;;;;;;;39.00;33.05;;;18.40;99.90;;;;;;5072491;28;20039;-33
2023/06/21 03:50:46;;;;;;;35.58;31.42;;;18.40;99.90;;;;;;5071422;28;20051;-32
2023/06/21 03:53:14;;;;;;;39.75;33.67;;;18.40;99.90;;;;;;5069378;28;20048;-33
2023/06/21 03:55:43;;;;;;;41.38;33.67;;;18.40;99.90;;;;;;5072086;28;20029;-33
2023/06/21 03:58:10;;;;;;;43.20;34.58;;;18.40;99.90;;;;;;5072929;28;20040;-33
2023/06/21 04:00:35;;;;;;;41.13;35.30;;;18.40;99.90;;;;;;5072261;28;20043;-33
2023/06/21 04:03:01;;;;;;;38.90;33.03;;;18.40;99.90;;;;;;5073038;28;20032;-33
2023/06/21 04:05:27;;;;;;;39.58;32.97;;;18.40;99.90;;;;;;5071829;28;20493;-33
2023/06/21 04:07:52;;;;;;;39.20;33.30;;;18.40;99.90;;;;;;5067483;28;20038;-33
2023/06/21 04:10:18;;;;;;;40.10;34.55;;;18.40;99.90;;;;;;5072298;28;20040;-33
2023/06/21 04:12:44;;;;;;;39.88;33.88;;;18.50;99.90;;;;;;5071861;28;20028;-33
2023/06/21 04:15:11;;;;;;;40.40;34.50;;;18.50;99.90;;;;;;5074207;28;20067;-33
2023/06/21 04:17:37;;;;;;;40.88;34.38;;;18.50;99.90;;;;;;5072347;28;20040;-33
2023/06/21 04:20:10;;;;;;;44.25;36.22;;;18.50;99.90;;;;;;5071338;28;20059;-33
2023/06/21 04:22:38;;;;;;;41.03;32.72;;;18.50;99.90;;;;;;5066685;28;20095;-33
2023/06/21 04:25:04;;;;;;;41.40;34.20;;;18.50;99.90;;;;;;5071703;28;20035;-32
2023/06/21 04:27:30;;;;;;;39.08;33.88;;;18.50;99.90;;;;;;5071767;28;20033;-33
2023/06/21 04:29:55;;;;;;;42.05;35.97;;;18.50;99.90;;;;;;5071547;28;20036;-33
2023/06/21 04:32:21;;;;;;;48.80;37.85;;;18.60;99.90;;;;;;5071497;28;20043;-33
2023/06/21 04:34:49;;;;;;;45.35;36.30;;;18.50;99.90;;;;;;5071496;28;20158;-33
2023/06/21 04:37:14;;;;;;;43.83;36.13;;;18.50;99.90;;;;;;5071587;28;20096;-33
2023/06/21 04:39:40;;;;;;;46.00;37.35;;;18.50;99.90;;;;;;5071455;28;20044;-33
2023/06/21 04:42:07;;;;;;;49.85;37.28;;;18.50;99.90;;;;;;5072360;28;20498;-33
2023/06/21 04:44:33;;;;;;;46.95;37.47;;;18.50;99.90;;;;;;5072248;28;20044;-33
2023/06/21 04:47:01;;;;;;;45.95;37.60;;;18.50;99.90;;;;;;5070229;28;20043;-33
2023/06/21 04:49:29;;;;;;;47.25;37.95;;;18.50;99.90;;;;;;5070952;28;20444;-33
2023/06/21 04:51:57;;;;;;;48.28;37.95;;;18.50;99.90;;;;;;5071520;28;20036;-33
2023/06/21 04:54:24;;;;;;;46.63;37.83;;;18.60;99.90;;;;;;5069603;28;20059;-33
2023/06/21 04:56:50;;;;;;;49.13;39.97;;;18.70;99.90;;;;;;5071847;28;20397;-34
2023/06/21 04:59:17;;;;;;;49.58;39.03;;;18.70;99.90;;;;;;5065560;28;20152;-33
2023/06/21 05:01:43;;;;;;;43.88;36.33;;;18.70;99.90;;;;;;5070952;28;20092;-33
2023/06/21 05:04:08;;;;;;;45.08;37.10;;;18.80;99.90;;;;;;5065349;28;20078;-33
2023/06/21 05:06:35;;;;;;;51.80;39.67;;;18.90;99.90;;;;;;5053708;28;20064;-33
2023/06/21 05:09:00;;;;;;;50.00;40.00;;;18.90;99.90;;;;;;5070817;28;20033;-33
2023/06/21 05:11:26;;;;;;;48.97;38.45;;;18.90;99.90;;;;;;5062065;28;20033;-33
2023/06/21 05:13:52;;;;;;;50.83;40.40;;;19.00;99.90;;;;;;5060858;28;20037;-32
2023/06/21 05:16:18;;;;;;;45.65;38.60;;;19.00;99.90;;;;;;5060187;28;20037;-32
2023/06/21 05:18:43;;;;;;;46.33;38.20;;;19.10;99.90;;;;;;5060538;28;20499;-32
2023/06/21 05:21:09;;;;;;;44.20;36.20;;;19.10;99.90;;;;;;5056317;28;20035;-32
2023/06/21 05:23:35;;;;;;;47.40;39.67;;;19.20;99.90;;;;;;5058922;28;20424;-33
2023/06/21 05:26:00;;;;;;;48.03;37.60;;;19.20;99.90;;;;;;5055175;28;20037;-33
2023/06/21 05:28:26;;;;;;;47.67;37.35;;;19.30;99.90;;;;;;5050404;28;20033;-33
2023/06/21 05:30:52;;;;;;;48.95;39.70;;;19.30;99.90;;;;;;5056679;28;20032;-33
2023/06/21 05:33:17;;;;;;;48.45;38.95;;;19.30;99.90;;;;;;5058481;28;20040;-32
2023/06/21 05:35:43;;;;;;;45.25;38.63;;;19.30;99.90;;;;;;5054728;28;20033;-32
2023/06/21 05:38:09;;;;;;;46.65;38.65;;;19.30;99.90;;;;;;5057752;28;20043;-32
2023/06/21 05:40:35;;;;;;;48.55;38.50;;;19.30;99.90;;;;;;5055344;28;20041;-32
2023/06/21 05:43:05;;;;;;;45.53;37.63;;;19.40;99.90;;;;;;5051160;28;20044;-32
2023/06/21 05:45:31;;;;;;;43.92;36.65;;;19.40;99.90;;;;;;5064874;28;20040;-33
2023/06/21 05:48:00;;;;;;;43.30;36.20;;;19.50;99.90;;;;;;5058866;28;20033;-33
2023/06/21 05:50:30;;;;;;;47.03;37.88;;;19.60;99.90;;;;;;5066995;28;20032;-32
2023/06/21 05:52:59;;;;;;;44.65;37.55;;;19.70;99.90;;;;;;5066907;28;20074;-32
2023/06/21 05:55:24;;;;;;;42.15;36.60;;;19.70;99.90;;;;;;5067321;28;20029;-32
2023/06/21 05:57:50;;;;;;;44.03;34.95;;;19.70;99.90;;;;;;5067886;28;20043;-32
2023/06/21 06:00:17;;;;;;;40.78;35.25;;;19.70;99.90;;;;;;5061793;28;20043;-32
2023/06/21 06:02:44;;;;;;;41.67;35.05;;;19.90;99.90;;;;;;5067881;28;20124;-33
2023/06/21 06:05:10;;;;;;;43.38;36.90;;;19.90;99.90;;;;;;5068676;28;20127;-33
2023/06/21 06:07:36;;;;;;;40.30;35.40;;;20.00;99.90;;;;;;5067890;28;20215;-32
2023/06/21 06:10:02;;;;;;;37.08;32.42;;;20.00;99.90;;;;;;5068854;28;20063;-32
2023/06/21 06:12:27;;;;;;;40.45;33.03;;;20.00;99.90;;;;;;5046650;28;20515;-32
2023/06/21 06:14:53;;;;;;;40.42;34.03;;;20.10;99.90;;;;;;5065952;28;20460;-32
2023/06/21 06:17:19;;;;;;;39.22;34.38;;;20.10;99.90;;;;;;5065658;28;20174;-33
2023/06/21 06:19:45;;;;;;;38.63;34.05;;;20.10;99.90;;;;;;5067949;28;20436;-33
2023/06/21 06:22:11;;;;;;;37.53;32.75;;;20.10;99.90;;;;;;5064673;28;20040;-33
2023/06/21 06:24:37;;;;;;;38.67;34.30;;;20.10;99.90;;;;;;5067204;28;20040;-33
2023/06/21 06:27:03;;;;;;;37.50;32.88;;;20.20;99.90;;;;;;5068284;28;20029;-33
2023/06/21 06:29:30;;;;;;;37.97;32.95;;;20.30;99.90;;;;;;5062638;28;20040;-33
2023/06/21 06:31:55;;;;;;;38.55;32.47;;;20.30;99.90;;;;;;5061795;28;20044;-33
2023/06/21 06:34:21;;;;;;;37.72;33.00;;;20.40;99.90;;;;;;5058365;28;20070;-32
2023/06/21 06:36:46;;;;;;;39.38;32.65;;;20.40;99.90;;;;;;5042043;28;20043;-33
2023/06/21 06:39:13;;;;;;;36.17;32.20;;;20.40;99.90;;;;;;5044970;28;20051;-32
2023/06/21 06:41:38;;;;;;;35.63;31.05;;;20.60;99.90;;;;;;5061183;28;20103;-33
2023/06/21 06:44:04;;;;;;;37.42;30.42;;;20.70;99.90;;;;;;5061200;28;20479;-33
2023/06/21 06:46:30;;;;;;;36.70;31.95;;;20.70;99.90;;;;;;5065971;28;20090;-33
2023/06/21 06:48:56;;;;;;;37.25;31.67;;;20.80;99.90;;;;;;5070271;28;20037;-33
2023/06/21 06:51:21;;;;;;;37.55;30.48;;;20.80;99.90;;;;;;5071731;28;20029;-33
2023/06/21 06:53:50;;;;;;;35.20;30.77;;;20.90;99.90;;;;;;5072310;28;20054;-33
2023/06/21 06:56:16;;;;;;;34.88;29.58;;;20.90;99.90;;;;;;5073306;28;20088;-33
2023/06/21 06:58:42;;;;;;;32.00;28.60;;;20.90;99.90;;;;;;5070982;28;20039;-33
2023/06/21 07:01:07;;;;;;;33.13;28.67;;;21.00;99.90;;;;;;5073916;28;20512;-33
2023/06/21 07:03:34;;;;;;;32.80;29.08;;;21.10;99.90;;;;;;5071693;28;20028;-33
2023/06/21 07:06:00;;;;;;;35.72;29.83;;;21.10;99.90;;;;;;5071270;28;20049;-33
2023/06/21 07:08:26;;;;;;;33.78;27.10;;;21.20;99.90;;;;;;5073278;28;20119;-33
2023/06/21 07:10:52;;;;;;;31.58;28.10;;;21.20;99.90;;;;;;5073593;28;20032;-33
2023/06/21 07:13:18;;;;;;;32.13;27.98;;;21.40;99.90;;;;;;5073669;28;20111;-33
2023/06/21 07:15:44;;;;;;;28.98;25.98;;;21.40;99.90;;;;;;5073669;28;20136;-33
2023/06/21 07:18:11;;;;;;;29.73;26.52;;;21.60;99.90;;;;;;5071955;28;20068;-33
2023/06/21 07:20:37;;;;;;;27.60;24.73;;;21.70;99.90;;;;;;5071941;28;20115;-33
2023/06/21 07:23:03;;;;;;;28.20;25.27;;;21.60;99.90;;;;;;5071754;28;20119;-33
2023/06/21 07:25:29;;;;;;;28.73;25.48;;;21.70;99.90;;;;;;5073135;28;20036;-33
2023/06/21 07:27:55;;;;;;;28.95;25.77;;;21.70;99.90;;;;;;5072951;28;20102;-33
2023/06/21 07:30:22;;;;;;;28.08;25.20;;;21.70;99.90;;;;;;5073575;28;20063;-33
2023/06/21 07:32:49;;;;;;;25.92;23.42;;;21.80;99.90;;;;;;5063113;28;20055;-33
2023/06/21 07:35:15;;;;;;;25.98;23.25;;;21.90;99.90;;;;;;5071760;28;20124;-33
2023/06/21 07:37:42;;;;;;;27.27;24.35;;;22.10;99.90;;;;;;5071978;28;20086;-33
2023/06/21 07:40:09;;;;;;;24.42;21.90;;;22.30;99.90;;;;;;5071623;28;20044;-33
2023/06/21 07:42:34;;;;;;;25.38;22.55;;;22.50;99.90;;;;;;5072726;28;20477;-33
2023/06/21 07:45:00;;;;;;;23.92;21.45;;;22.50;99.90;;;;;;5072121;28;20039;-33
2023/06/21 07:47:27;;;;;;;23.45;21.13;;;22.50;99.90;;;;;;5072849;28;20040;-33
2023/06/21 07:49:53;;;;;;;22.58;20.17;;;22.60;99.90;;;;;;5072138;28;20028;-33
2023/06/21 07:52:19;;;;;;;22.88;20.75;;;22.50;99.90;;;;;;5070484;28;20085;-33
2023/06/21 07:54:47;;;;;;;21.45;19.15;;;22.50;99.90;;;;;;5073000;28;20120;-33
2023/06/21 07:57:16;;;;;;;21.13;18.92;;;22.60;99.90;;;;;;5072007;28;20037;-33
2023/06/21 07:59:42;;;;;;;20.20;18.20;;;22.80;99.90;;;;;;5071119;28;20497;-35
2023/06/21 08:02:09;;;;;;;19.45;17.55;;;22.90;99.90;;;;;;5077587;28;20036;-39
2023/06/21 08:04:36;;;;;;;21.08;18.48;;;22.90;99.90;;;;;;5078165;28;20040;-32
2023/06/21 08:07:03;;;;;;;19.17;17.35;;;23.10;99.90;;;;;;5075124;28;20131;-31
2023/06/21 08:09:29;;;;;;;19.65;17.65;;;23.20;99.90;;;;;;5093450;28;20121;-32
2023/06/21 08:11:55;;;;;;;19.05;17.17;;;23.40;99.90;;;;;;5093340;28;20455;-32
2023/06/21 08:14:20;;;;;;;18.67;16.83;;;23.60;99.90;;;;;;5058054;28;20073;-32
2023/06/21 08:16:46;;;;;;;18.95;16.95;;;23.60;99.90;;;;;;5053718;28;20379;-32
2023/06/21 08:19:12;;;;;;;18.60;16.80;;;23.70;99.90;;;;;;5054982;28;20044;-32
2023/06/21 08:21:38;;;;;;;19.23;17.17;;;23.70;99.90;;;;;;5072978;28;20051;-32
2023/06/21 08:24:04;;;;;;;16.55;15.05;;;23.70;99.90;;;;;;5073400;28;20119;-32
2023/06/21 08:26:30;;;;;;;16.10;14.50;;;24.00;99.90;;;;;;5074066;28;20115;-32
2023/06/21 08:28:55;;;;;;;17.25;14.85;;;24.20;99.90;;;;;;5073574;28;20033;-32
2023/06/21 08:31:21;;;;;;;17.35;15.52;;;24.40;99.90;;;;;;5073876;28;20041;-32
2023/06/21 08:33:47;;;;;;;20.27;16.55;;;24.60;99.90;;;;;;5072224;28;20036;-32
2023/06/21 08:36:12;;;;;;;15.52;13.93;;;24.90;99.90;;;;;;5073544;28;20469;-32
2023/06/21 08:38:38;;;;;;;15.57;12.82;;;24.90;99.90;;;;;;5072698;28;20040;-32
2023/06/21 08:41:04;;;;;;;14.75;13.20;;;25.00;99.90;;;;;;5072854;28;20037;-32
2023/06/21 08:43:34;;;;;;;14.32;12.93;;;24.90;99.90;;;;;;5072711;28;20037;-32
2023/06/21 08:46:03;;;;;;;13.88;12.48;;;24.70;99.90;;;;;;5073191;28;20041;-32
2023/06/21 08:48:32;;;;;;;13.10;11.80;;;24.80;99.90;;;;;;5073011;28;20478;-32
2023/06/21 08:50:59;;;;;;;12.73;11.52;;;25.00;99.90;;;;;;5072883;28;20444;-32
2023/06/21 08:53:59;;;;;;;13.25;11.85;;;25.00;99.90;;;;;;5072745;28;20085;-32
2023/06/21 08:56:27;;;;;;;13.75;12.52;;;24.90;99.90;;;;;;5059449;28;20305;-32
2023/06/21 08:59:05;;;;;;;13.18;11.65;;;24.90;99.90;;;;;;5073655;28;20041;-32
2023/06/21 09:01:51;;;;;;;11.98;10.77;;;25.10;99.90;;;;;;5073631;28;20048;-32
2023/06/21 09:04:19;;;;;;;11.10;9.98;;;25.00;99.90;;;;;;5073744;28;20079;-32
2023/06/21 09:06:45;;;;;;;12.00;10.80;;;24.70;99.90;;;;;;5073121;28;20076;-32
2023/06/21 09:09:13;;;;;;;12.73;11.63;;;25.00;99.90;;;;;;5055109;28;20040;-32
2023/06/21 09:11:41;;;;;;;13.07;11.82;;;25.40;99.90;;;;;;5072096;28;20492;-32
2023/06/21 09:14:07;;;;;;;12.85;11.13;;;25.70;99.90;;;;;;5071941;28;20055;-32
2023/06/21 09:16:34;;;;;;;12.48;11.18;;;25.90;99.90;;;;;;5071391;28;20036;-32
2023/06/21 09:19:03;;;;;;;10.85;9.75;;;25.90;99.90;;;;;;5071241;28;20040;-32
2023/06/21 09:21:32;;;;;;;12.95;11.23;;;26.10;99.90;;;;;;5071377;28;20044;-32
2023/06/21 09:23:58;;;;;;;12.95;10.20;;;26.40;99.90;;;;;;5071465;28;20032;-32
2023/06/21 09:26:23;;;;;;;11.70;10.50;;;26.70;99.90;;;;;;5071684;28;20044;-32
2023/06/21 09:28:49;;;;;;;10.93;9.93;;;26.60;99.90;;;;;;5071307;28;20032;-32
2023/06/21 09:31:21;;;;;;;12.32;9.98;;;26.40;99.90;;;;;;5070686;28;20176;-32
2023/06/21 09:33:49;;;;;;;11.10;10.10;;;26.70;99.90;;;;;;5071898;28;20040;-32
2023/06/21 09:36:14;;;;;;;12.68;10.30;;;26.80;99.90;;;;;;5070908;28;20041;-32
2023/06/21 09:38:40;;;;;;;10.95;9.88;;;26.70;99.90;;;;;;5070888;28;20113;-32
2023/06/21 09:41:07;;;;;;;9.88;8.98;;;26.50;99.90;;;;;;5070950;28;20277;-32
2023/06/21 09:43:39;;;;;;;9.05;8.15;;;26.60;99.90;;;;;;5071408;28;20032;-31
2023/06/21 09:46:08;;;;;;;8.68;7.85;;;26.80;99.90;;;;;;5054015;28;20123;-32
2023/06/21 09:48:35;;;;;;;8.48;7.78;;;27.20;99.90;;;;;;5073582;28;20036;-32
2023/06/21 09:51:03;;;;;;;11.13;8.90;;;27.70;99.90;;;;;;5055068;28;20063;-32
2023/06/21 09:53:29;;;;;;;8.70;7.78;;;28.00;99.90;;;;;;5038216;28;20052;-35
2023/06/21 09:56:00;;;;;;;8.50;7.68;;;28.10;99.90;;;;;;5073924;28;20041;-35
2023/06/21 09:58:25;;;;;;;11.00;9.90;;;28.20;99.90;;;;;;5057132;28;20052;-33
2023/06/21 10:00:51;;;;;;;7.60;6.72;;;28.30;99.90;;;;;;5074075;28;20046;-33
2023/06/21 10:03:22;;;;;;;6.70;5.47;;;28.40;99.90;;;;;;5081772;28;20040;-32
2023/06/21 10:06:01;;;;;;;6.63;6.00;;;28.70;99.90;;;;;;5071981;28;20045;-32
2023/06/21 10:08:28;;;;;;;6.45;5.85;;;28.60;99.90;;;;;;5070966;28;20515;-33
2023/06/21 10:10:55;;;;;;;5.32;4.75;;;28.10;99.90;;;;;;5071305;28;20148;-33
2023/06/21 10:13:32;;;;;;;5.47;5.07;;;27.70;99.90;;;;;;5071416;28;20029;-33
2023/06/21 10:16:00;;;;;;;6.15;5.55;;;27.40;99.90;;;;;;5066651;28;20029;-32
2023/06/21 10:18:25;;;;;;;5.80;5.30;;;27.50;99.90;;;;;;5070728;28;20044;-32
2023/06/21 10:21:05;;;;;;;6.30;5.70;;;27.40;99.90;;;;;;5073012;28;20143;-32
2023/06/21 10:23:34;;;;;;;5.47;4.97;;;27.10;99.90;;;;;;5072104;28;20393;-33
2023/06/21 10:26:05;;;;;;;5.53;4.97;;;27.00;99.90;;;;;;5072784;28;20047;-32
2023/06/21 10:28:36;;;;;;;6.65;6.05;;;26.80;99.90;;;;;;5072681;28;20075;-32
2023/06/21 10:31:03;;;;;;;6.07;5.50;;;26.60;99.90;;;;;;5070142;28;20036;-32
2023/06/21 10:33:32;;;;;;;6.60;5.53;;;26.40;99.90;;;;;;5071275;28;20405;-32
2023/06/21 10:36:01;;;;;;;6.70;5.70;;;26.60;99.90;;;;;;5072983;28;20052;-32
2023/06/21 10:38:39;;;;;;;8.02;7.30;;;27.00;99.90;;;;;;5072518;28;20032;-32
2023/06/21 10:41:05;;;;;;;7.70;6.90;;;27.60;99.90;;;;;;5073429;28;20485;-32
2023/06/21 10:43:32;;;;;;;8.18;7.25;;;27.80;99.90;;;;;;5071362;28;20090;-33
2023/06/21 10:46:00;;;;;;;8.77;5.15;;;28.10;99.90;;;;;;5069850;28;20143;-33
2023/06/21 10:48:31;;;;;;;5.75;5.07;;;28.40;99.90;;;;;;5070289;28;20120;-33
2023/06/21 10:50:57;;;;;;;6.00;5.32;;;28.80;99.90;;;;;;5071490;28;20486;-34
2023/06/21 10:53:23;;;;;;;5.22;4.72;;;29.00;99.00;;;;;;5069041;28;20044;-32
2023/06/21 10:55:49;;;;;;;5.78;5.28;;;29.10;98.50;;;;;;5051334;28;20386;-33
2023/06/21 10:58:16;;;;;;;6.72;5.95;;;28.90;97.10;;;;;;5057355;28;20135;-33
2023/06/21 11:00:44;;;;;;;6.20;5.53;;;28.80;95.70;;;;;;5084119;28;20062;-33
2023/06/21 11:03:30;;;;;;;6.00;5.50;;;28.70;96.00;;;;;;5071851;28;20028;-33
2023/06/21 11:06:29;;;;;;;5.90;5.40;;;29.10;95.30;;;;;;5072864;28;20087;-33
2023/06/21 11:08:56;;;;;;;6.22;5.63;;;29.60;93.40;;;;;;5072931;28;20098;-33
2023/06/21 11:11:33;;;;;;;7.07;6.38;;;30.10;94.60;;;;;;5073032;28;20058;-33
2023/06/21 11:14:06;;;;;;;7.25;6.55;;;30.10;87.00;;;;;;5072311;28;20127;-33
2023/06/21 11:16:34;;;;;;;7.32;6.63;;;30.00;88.80;;;;;;5072437;28;20079;-33
2023/06/21 11:19:07;;;;;;;8.35;7.63;;;29.90;86.70;;;;;;5072528;28;20048;-33
2023/06/21 11:21:50;;;;;;;6.95;6.25;;;29.50;83.90;;;;;;5071179;28;20032;-32
2023/06/21 11:24:28;;;;;;;7.78;6.97;;;29.30;89.80;;;;;;5068354;28;20044;-30
2023/06/21 11:26:58;;;;;;;6.60;6.00;;;29.30;87.60;;;;;;5071339;28;20036;-31
2023/06/21 11:29:40;;;;;;;5.78;5.28;;;29.30;87.50;;;;;;5052167;28;20055;-31
2023/06/21 11:32:09;;;;;;;5.50;4.72;;;29.70;83.60;;;;;;5090809;28;20059;-31
2023/06/21 11:34:35;;;;;;;6.35;5.85;;;30.00;89.00;;;;;;5090748;28;20071;-31
2023/06/21 11:37:41;;;;;;;6.40;5.80;;;30.10;88.40;;;;;;5073613;28;20087;-31
2023/06/21 11:40:09;;;;;;;7.82;6.00;;;30.00;77.10;;;;;;5057510;28;20035;-31
2023/06/21 11:42:46;;;;;;;6.22;5.00;;;30.20;81.70;;;;;;5073452;28;20029;-31
2023/06/21 11:45:31;;;;;;;6.18;5.65;;;30.20;82.60;;;;;;5073475;28;20052;-31
2023/06/21 11:48:08;;;;;;;5.80;5.30;;;29.70;79.40;;;;;;5070775;28;20401;-32
2023/06/21 11:50:45;;;;;;;5.85;5.35;;;29.30;81.30;;;;;;5059527;28;20039;-31
2023/06/21 11:53:30;;;;;;;5.38;4.88;;;29.00;82.70;;;;;;5055318;28;20032;-32
2023/06/21 11:55:58;;;;;;;6.68;6.00;;;29.50;90.20;;;;;;5055871;28;20501;-32
2023/06/21 11:58:25;;;;;;;6.38;5.88;;;29.90;84.10;;;;;;5073953;28;20043;-32
2023/06/21 12:00:52;;;;;;;5.65;5.15;;;29.60;82.10;;;;;;5073484;28;20044;-31
2023/06/21 12:03:21;;;;;;;5.82;5.18;;;29.20;81.30;;;;;;5073313;28;20072;-31
2023/06/21 12:05:49;;;;;;;6.38;5.63;;;29.10;82.60;;;;;;5074548;28;20252;-31
2023/06/21 12:08:16;;;;;;;6.03;5.00;;;29.60;82.60;;;;;;5074005;28;20045;-32
2023/06/21 12:10:41;;;;;;;6.13;5.35;;;30.30;82.50;;;;;;5074383;28;20393;-32
2023/06/21 12:13:12;;;;;;;5.82;5.32;;;30.70;78.50;;;;;;5073934;28;20121;-32
2023/06/21 12:15:43;;;;;;;6.03;5.53;;;31.00;72.60;;;;;;5073719;28;20202;-32
2023/06/21 12:18:12;;;;;;;5.05;4.65;;;31.40;70.10;;;;;;5055405;28;20510;-32
2023/06/21 12:20:38;;;;;;;6.13;5.55;;;31.80;68.80;;;;;;5073119;28;20059;-32
2023/06/21 12:23:07;;;;;;;5.68;5.18;;;31.90;65.40;;;;;;5054192;28;20036;-32
2023/06/21 12:25:46;;;;;;;4.70;4.30;;;31.80;67.10;;;;;;5073236;28;20043;-33
2023/06/21 12:28:13;;;;;;;5.40;4.90;;;32.00;68.10;;;;;;5084720;28;20086;-32
2023/06/21 12:30:58;;;;;;;5.90;5.40;;;32.20;65.50;;;;;;5073460;28;20375;-32
2023/06/21 12:33:26;;;;;;;4.50;4.15;;;32.30;60.70;;;;;;5055752;28;20127;-32
2023/06/21 12:35:52;;;;;;;8.02;5.65;;;32.70;62.00;;;;;;5073654;28;20048;-32